Time;durP1;ratioP1;P1;durP2;ratioP2;P2;SDS_P1;SDS_P2;PMS_P1;PMS_P2;Temp;Humidity;BMP_temperature;BMP_pressure;BME280_temperature;BME280_humidity;BME280_pressure;Samples;Min_cycle;Max_cycle;Signal;HPM_P1;HPM_P2
2022/01/03 00:02:20;;;;;;;8.75;2.88;;;;;;;;;;4968311;28;20031;-66
2022/01/03 00:04:46;;;;;;;5.28;2.97;;;;;;;;;;4977381;28;20038;-66
2022/01/03 00:07:12;;;;;;;9.30;3.22;;;;;;;;;;4959316;28;20039;-66
2022/01/03 00:09:38;;;;;;;5.50;2.90;;;;;;;;;;4954782;28;20026;-66
2022/01/03 00:12:04;;;;;;;9.55;3.08;;;;;;;;;;4973349;28;20038;-66
2022/01/03 00:14:31;;;;;;;3.95;2.90;;;;;;;;;;4973295;28;20122;-66
2022/01/03 00:16:57;;;;;;;5.80;2.90;;;;;;;;;;4952207;28;20038;-66
2022/01/03 00:19:23;;;;;;;8.00;3.13;;;;;;;;;;4965244;28;20504;-66
2022/01/03 00:21:49;;;;;;;6.97;2.85;;;;;;;;;;4978109;28;20041;-67
2022/01/03 00:24:15;;;;;;;8.38;2.83;;;;;;;;;;4970234;28;20038;-66
2022/01/03 00:26:41;;;;;;;6.63;2.67;;;;;;;;;;4977189;28;20117;-66
2022/01/03 00:29:07;;;;;;;6.70;2.58;;;;;;;;;;4963437;28;20038;-66
2022/01/03 00:31:33;;;;;;;5.53;2.67;;;;;;;;;;4965865;28;20034;-65
2022/01/03 00:33:59;;;;;;;7.85;3.38;;;;;;;;;;4976390;28;20039;-66
2022/01/03 00:36:25;;;;;;;5.57;2.92;;;;;;;;;;4975791;28;20174;-65
2022/01/03 00:38:51;;;;;;;4.07;2.60;;;;;;;;;;4965376;28;20036;-64
2022/01/03 00:41:17;;;;;;;7.88;3.00;;;;;;;;;;4964172;28;20478;-64
2022/01/03 00:43:43;;;;;;;10.98;2.90;;;;;;;;;;4969526;28;20030;-64
2022/01/03 00:46:09;;;;;;;8.65;2.72;;;;;;;;;;4963935;28;20041;-64
2022/01/03 00:48:35;;;;;;;6.05;2.72;;;;;;;;;;4958513;28;20097;-64
2022/01/03 00:51:01;;;;;;;4.68;2.60;;;;;;;;;;4974484;28;20363;-64
2022/01/03 00:53:27;;;;;;;7.57;2.75;;;;;;;;;;4964275;28;20098;-63
2022/01/03 00:55:54;;;;;;;12.27;2.70;;;;;;;;;;4970894;28;20118;-64
2022/01/03 00:58:21;;;;;;;6.22;2.40;;;;;;;;;;4968522;28;20703;-64
2022/01/03 01:00:47;;;;;;;6.43;2.67;;;;;;;;;;4976455;28;20037;-64
2022/01/03 01:03:15;;;;;;;3.38;2.40;;;;;;;;;;4959158;28;20430;-64
2022/01/03 01:05:41;;;;;;;6.45;3.00;;;;;;;;;;4972335;28;20042;-64
2022/01/03 01:08:07;;;;;;;7.85;2.80;;;;;;;;;;4969933;28;20061;-64
2022/01/03 01:10:33;;;;;;;9.45;3.30;;;;;;;;;;4974254;28;20035;-63
2022/01/03 01:12:59;;;;;;;7.28;2.80;;;;;;;;;;4969565;28;20034;-64
2022/01/03 01:15:27;;;;;;;11.95;2.63;;;;;;;;;;4964927;28;20711;-63
2022/01/03 01:17:53;;;;;;;6.05;2.70;;;;;;;;;;4957327;28;20031;-64
2022/01/03 01:20:20;;;;;;;6.85;2.70;;;;;;;;;;4963451;28;20042;-64
2022/01/03 01:22:49;;;;;;;8.88;2.63;;;;;;;;;;4964224;28;20089;-64
2022/01/03 01:27:49;;;;;;;5.10;3.03;;;;;;;;;;4965773;28;20074;-64
2022/01/03 01:30:16;;;;;;;6.23;2.67;;;;;;;;;;4958470;28;20065;-65
2022/01/03 01:32:42;;;;;;;4.35;2.70;;;;;;;;;;4964591;28;20054;-64
2022/01/03 01:35:08;;;;;;;7.53;2.63;;;;;;;;;;4962894;28;20553;-64
2022/01/03 01:37:34;;;;;;;6.63;2.58;;;;;;;;;;4976858;28;20030;-64
2022/01/03 01:40:00;;;;;;;6.55;3.05;;;;;;;;;;4965111;28;20527;-64
2022/01/03 01:42:26;;;;;;;4.93;2.42;;;;;;;;;;4969614;28;20529;-64
2022/01/03 01:44:54;;;;;;;5.45;2.40;;;;;;;;;;4967965;28;20026;-64
2022/01/03 01:47:22;;;;;;;2.75;1.85;;;;;;;;;;4959085;28;20045;-65
2022/01/03 01:49:48;;;;;;;5.03;2.28;;;;;;;;;;4969173;28;20053;-64
2022/01/03 01:52:17;;;;;;;4.03;2.10;;;;;;;;;;4967642;28;20030;-65
2022/01/03 01:54:43;;;;;;;6.13;1.98;;;;;;;;;;4953186;28;20084;-64
2022/01/03 01:57:12;;;;;;;5.68;1.98;;;;;;;;;;4959091;28;20038;-65
2022/01/03 01:59:46;;;;;;;4.22;1.70;;;;;;;;;;4967974;28;20553;-64
2022/01/03 02:02:12;;;;;;;5.43;1.90;;;;;;;;;;4973701;28;20023;-64
2022/01/03 02:04:44;;;;;;;3.38;1.60;;;;;;;;;;4968686;28;20472;-64
2022/01/03 02:07:10;;;;;;;3.25;1.73;;;;;;;;;;4967091;28;20030;-64
2022/01/03 02:09:36;;;;;;;4.30;1.63;;;9.10;99.90;;;;;;4968621;28;20509;-65
2022/01/03 02:12:01;;;;;;;3.70;2.38;;;9.10;99.90;;;;;;4968089;28;20030;-65
2022/01/03 02:14:36;;;;;;;2.90;1.50;;;9.00;99.90;;;;;;4967686;28;20136;-65
2022/01/03 02:17:04;;;;;;;2.97;1.60;;;9.00;99.90;;;;;;4954378;28;20140;-65
2022/01/03 02:19:30;;;;;;;3.50;1.40;;;9.10;99.90;;;;;;4977512;28;20035;-65
2022/01/03 02:21:56;;;;;;;4.32;1.40;;;9.00;99.90;;;;;;4957174;28;20383;-64
2022/01/03 02:24:29;;;;;;;5.40;1.40;;;8.50;99.90;;;;;;4967938;28;20037;-65
2022/01/03 02:26:54;;;;;;;3.20;1.30;;;8.90;99.90;;;;;;4967067;28;20507;-64
2022/01/03 02:29:20;;;;;;;2.25;1.15;;;8.90;99.90;;;;;;4967146;28;20834;-65
2022/01/03 02:31:46;;;;;;;3.97;1.10;;;8.20;99.90;;;;;;4967719;28;20054;-65
2022/01/03 02:34:12;;;;;;;1.38;1.00;;;8.90;99.90;;;;;;4960412;28;20034;-65
2022/01/03 02:36:38;;;;;;;3.00;1.27;;;9.00;99.90;;;;;;4968220;28;20506;-65
2022/01/03 02:39:05;;;;;;;2.58;1.10;;;;;;;;;;4960552;28;20027;-65
2022/01/03 02:41:31;;;;;;;4.22;0.80;;;9.10;99.90;;;;;;4978175;28;20458;-64
2022/01/03 02:43:59;;;;;;;2.45;1.52;;;8.80;99.90;;;;;;4958515;28;20065;-65
2022/01/03 02:46:24;;;;;;;1.60;0.85;;;8.90;99.90;;;;;;4953595;28;20113;-64
2022/01/03 02:48:51;;;;;;;0.82;0.75;;;8.50;99.90;;;;;;4966409;28;20904;-65
2022/01/03 02:51:17;;;;;;;1.40;0.70;;;8.90;99.90;;;;;;4959863;28;20030;-65
2022/01/03 02:53:43;;;;;;;1.27;0.90;;;;;;;;;;4967398;28;20049;-64
2022/01/03 02:56:09;;;;;;;3.30;0.80;;;9.00;99.90;;;;;;4967120;28;20045;-65
2022/01/03 02:58:34;;;;;;;1.38;0.68;;;9.00;99.90;;;;;;4966753;28;20027;-65
2022/01/03 03:01:00;;;;;;;1.55;0.63;;;10.10;99.90;;;;;;4966099;28;20037;-65
2022/01/03 03:03:32;;;;;;;1.70;0.70;;;8.90;99.90;;;;;;4960851;28;20037;-64
2022/01/03 03:05:59;;;;;;;3.22;0.95;;;;;;;;;;4967489;28;20410;-65
2022/01/03 03:08:25;;;;;;;2.63;0.77;;;9.20;99.90;;;;;;4959822;28;20177;-65
2022/01/03 03:10:51;;;;;;;1.75;0.88;;;9.20;99.90;;;;;;4959402;28;20042;-65
2022/01/03 03:13:17;;;;;;;2.95;0.90;;;9.30;99.90;;;;;;4972392;28;20034;-65
2022/01/03 03:15:43;;;;;;;1.50;0.70;;;10.00;99.90;;;;;;4972819;28;20066;-65
2022/01/03 03:18:10;;;;;;;1.42;0.70;;;;;;;;;;4975685;28;20193;-65
2022/01/03 03:20:36;;;;;;;2.70;0.77;;;9.20;99.90;;;;;;4968099;28;20490;-65
2022/01/03 03:23:01;;;;;;;3.22;0.90;;;8.80;99.90;;;;;;4966600;28;20165;-65
2022/01/03 03:25:30;;;;;;;5.45;1.02;;;9.00;99.90;;;;;;4964952;28;20117;-65
2022/01/03 03:27:56;;;;;;;3.13;0.95;;;9.10;99.90;;;;;;4953286;28;20043;-65
2022/01/03 03:30:26;;;;;;;3.15;1.15;;;9.10;99.90;;;;;;4966338;28;20034;-65
2022/01/03 03:32:52;;;;;;;2.65;1.10;;;8.30;99.90;;;;;;4957830;28;20026;-64
2022/01/03 03:35:18;;;;;;;3.67;1.30;;;;;;;;;;4979906;28;20141;-64
2022/01/03 03:37:45;;;;;;;4.53;1.40;;;;;;;;;;4965782;28;20083;-65
2022/01/03 03:40:10;;;;;;;8.82;1.90;;;8.70;99.90;;;;;;4976034;28;20027;-65
2022/01/03 03:42:37;;;;;;;4.05;1.60;;;;;;;;;;4965224;28;20502;-64
2022/01/03 03:45:02;;;;;;;4.05;1.80;;;8.90;99.90;;;;;;4965974;28;20562;-65
2022/01/03 03:47:29;;;;;;;4.88;1.98;;;;;;;;;;4966720;28;20521;-65
2022/01/03 03:49:55;;;;;;;4.82;1.63;;;8.70;99.90;;;;;;4959702;28;20038;-65
2022/01/03 03:52:20;;;;;;;4.38;1.65;;;8.70;99.90;;;;;;4975202;28;20484;-65
2022/01/03 03:54:47;;;;;;;7.30;1.90;;;;;;;;;;4957238;28;20128;-65
2022/01/03 03:57:12;;;;;;;5.70;1.50;;;8.30;99.90;;;;;;4963977;28;20093;-65
2022/01/03 03:59:38;;;;;;;4.72;1.67;;;10.60;99.90;;;;;;4965697;28;20040;-65
2022/01/03 04:02:04;;;;;;;5.18;1.85;;;;;;;;;;4966401;28;20074;-66
2022/01/03 04:04:30;;;;;;;3.25;1.33;;;8.70;99.90;;;;;;4957173;28;20031;-66
2022/01/03 04:06:56;;;;;;;2.97;1.20;;;8.40;99.90;;;;;;4957412;28;20157;-65
2022/01/03 04:09:22;;;;;;;4.05;1.20;;;8.70;99.90;;;;;;4956220;28;20568;-66
2022/01/03 04:11:47;;;;;;;6.13;1.10;;;8.70;99.90;;;;;;4966289;28;20087;-65
2022/01/03 04:14:13;;;;;;;3.67;0.65;;;8.70;99.90;;;;;;4964919;28;20034;-65
2022/01/03 04:16:39;;;;;;;2.67;0.85;;;;;;;;;;4966002;28;20018;-65
2022/01/03 04:19:05;;;;;;;2.65;0.55;;;;;;;;;;4965580;28;20077;-65
2022/01/03 04:21:31;;;;;;;2.25;0.45;;;;;;;;;;4959255;28;20031;-65
2022/01/03 04:23:57;;;;;;;1.35;0.35;;;;;;;;;;4953765;28;20561;-65
2022/01/03 04:26:24;;;;;;;0.95;0.30;;;;;;;;;;4964646;28;20097;-65
2022/01/03 04:28:51;;;;;;;0.50;0.38;;;;;;;;;;4959213;28;20526;-65
2022/01/03 04:31:17;;;;;;;0.55;0.20;;;;;;;;;;4959856;28;20654;-66
2022/01/03 04:33:45;;;;;;;3.42;0.13;;;;;;;;;;4974143;28;20084;-65
2022/01/03 04:36:11;;;;;;;0.30;0.10;;;;;;;;;;4975228;28;20582;-65
2022/01/03 04:38:37;;;;;;;0.22;0.17;;;;;;;;;;4953126;28;20033;-65
2022/01/03 04:41:03;;;;;;;0.22;0.22;;;;;;;;;;4965339;28;20029;-65
2022/01/03 04:43:29;;;;;;;0.15;0.15;;;;;;;;;;4959323;28;20037;-65
2022/01/03 04:45:56;;;;;;;0.40;0.13;;;;;;;;;;4960094;28;20039;-65
2022/01/03 04:48:21;;;;;;;1.70;0.28;;;8.40;99.90;;;;;;4955627;28;20121;-65
2022/01/03 04:50:47;;;;;;;0.60;0.38;;;;;;;;;;4962285;28;20087;-65
2022/01/03 04:53:13;;;;;;;1.02;0.25;;;8.20;99.90;;;;;;4969992;28;20042;-65
2022/01/03 04:55:39;;;;;;;3.28;0.45;;;8.20;99.90;;;;;;4974533;28;20050;-65
2022/01/03 04:58:04;;;;;;;0.43;0.20;;;8.20;99.90;;;;;;4962780;28;20491;-65
2022/01/03 05:00:30;;;;;;;1.17;0.40;;;;;;;;;;4977178;28;20041;-65
2022/01/03 05:02:56;;;;;;;1.30;0.22;;;8.00;99.90;;;;;;4966271;28;20673;-65
2022/01/03 05:05:22;;;;;;;6.03;0.52;;;7.00;99.90;;;;;;4956883;28;20027;-69
2022/01/03 05:07:47;;;;;;;7.53;0.50;;;8.00;99.90;;;;;;4965434;28;20041;-69
2022/01/03 05:10:13;;;;;;;2.50;0.30;;;8.30;99.90;;;;;;4964409;28;20471;-69
2022/01/03 05:12:40;;;;;;;3.97;0.57;;;;;;;;;;4966244;28;20058;-69
2022/01/03 05:15:06;;;;;;;2.25;1.40;;;;;;;;;;4964723;28;20073;-69
2022/01/03 05:17:32;;;;;;;2.35;0.52;;;7.80;99.90;;;;;;4968859;28;20050;-69
2022/01/03 05:19:58;;;;;;;0.57;0.50;;;7.90;99.90;;;;;;4960044;28;20049;-69
2022/01/03 05:22:24;;;;;;;4.68;0.55;;;7.90;99.90;;;;;;4971991;28;20262;-69
2022/01/03 05:24:49;;;;;;;5.07;0.70;;;7.90;99.90;;;;;;4969729;28;20114;-69
2022/01/03 05:27:15;;;;;;;6.30;0.98;;;7.90;99.90;;;;;;4969385;28;20045;-69
2022/01/03 05:29:41;;;;;;;1.48;0.50;;;8.00;99.90;;;;;;4968101;28;20038;-69
2022/01/03 05:32:07;;;;;;;3.25;0.70;;;8.00;99.90;;;;;;4968803;28;20561;-69
2022/01/03 05:34:33;;;;;;;7.80;2.35;;;8.00;99.90;;;;;;4969514;28;20030;-69
2022/01/03 05:37:00;;;;;;;3.63;0.70;;;7.90;99.90;;;;;;4959975;28;20062;-69
2022/01/03 05:39:25;;;;;;;3.33;0.70;;;8.40;99.90;;;;;;4969835;28;20117;-69
2022/01/03 05:41:51;;;;;;;3.90;0.93;;;8.00;99.90;;;;;;4963840;28;20042;-69
2022/01/03 05:44:18;;;;;;;10.98;1.10;;;8.00;99.90;;;;;;4967288;28;20031;-69
2022/01/03 05:46:43;;;;;;;7.50;1.52;;;8.10;99.90;;;;;;4968672;28;20053;-69
2022/01/03 05:49:11;;;;;;;6.22;1.27;;;8.10;99.90;;;;;;4966645;28;20779;-69
2022/01/03 05:51:37;;;;;;;11.05;1.50;;;8.20;99.90;;;;;;4969040;28;20490;-70
2022/01/03 05:54:03;;;;;;;8.48;1.33;;;8.30;99.90;;;;;;4964543;28;20093;-69
2022/01/03 05:56:29;;;;;;;8.93;1.25;;;8.30;99.90;;;;;;4980034;28;20038;-69
2022/01/03 05:58:56;;;;;;;10.02;1.58;;;;;;;;;;4968503;28;20034;-69
2022/01/03 06:01:24;;;;;;;11.23;1.83;;;8.60;99.90;;;;;;4967163;28;20442;-69
2022/01/03 06:03:59;;;;;;;6.22;1.27;;;8.50;99.90;;;;;;4969861;28;20059;-69
2022/01/03 06:06:53;;;;;;;9.15;2.10;;;8.70;99.90;;;;;;4960384;28;20131;-69
2022/01/03 06:09:10;;;;;;;9.43;1.73;;;8.50;99.90;;;;;;4966995;28;20045;-69
2022/01/03 06:11:35;;;;;;;11.60;1.40;;;8.50;99.90;;;;;;4959116;28;20030;-69
2022/01/03 06:14:01;;;;;;;10.18;1.35;;;8.60;99.90;;;;;;4967224;28;20031;-69
2022/01/03 06:16:28;;;;;;;9.65;1.73;;;8.60;99.90;;;;;;4967266;28;20582;-69
2022/01/03 06:18:54;;;;;;;17.10;1.67;;;8.50;99.90;;;;;;4968164;28;20148;-69
2022/01/03 06:21:19;;;;;;;6.25;1.30;;;8.40;99.90;;;;;;4967089;28;20037;-69
2022/01/03 06:23:46;;;;;;;5.03;1.75;;;8.40;99.90;;;;;;4967559;28;20049;-69
2022/01/03 06:26:12;;;;;;;10.82;1.50;;;8.40;99.90;;;;;;4965405;28;20499;-69
2022/01/03 06:28:42;;;;;;;10.00;1.52;;;7.00;99.90;;;;;;4967841;28;20038;-69
2022/01/03 06:31:09;;;;;;;10.88;1.35;;;8.50;99.90;;;;;;4967435;28;20130;-69
2022/01/03 06:33:35;;;;;;;11.73;2.00;;;8.60;99.90;;;;;;4972110;28;20030;-69
2022/01/03 06:36:01;;;;;;;12.52;1.50;;;8.50;99.90;;;;;;4964891;28;20038;-69
2022/01/03 06:38:27;;;;;;;10.02;1.30;;;;;;;;;;4973663;28;20038;-69
2022/01/03 06:40:53;;;;;;;12.60;1.83;;;8.60;99.90;;;;;;4972834;28;20037;-69
2022/01/03 06:43:19;;;;;;;6.45;2.28;;;9.00;99.90;;;;;;4970862;28;20034;-69
2022/01/03 06:45:45;;;;;;;9.95;1.30;;;8.50;99.90;;;;;;4951956;28;20027;-69
2022/01/03 06:48:10;;;;;;;8.13;1.10;;;8.60;99.90;;;;;;4972618;28;20480;-69
2022/01/03 06:50:36;;;;;;;19.10;1.75;;;8.80;99.90;;;;;;4963216;28;20743;-69
2022/01/03 06:53:03;;;;;;;10.98;2.08;;;8.60;99.90;;;;;;4961650;28;20027;-69
2022/01/03 06:55:29;;;;;;;10.27;1.40;;;8.40;99.90;;;;;;4968199;28;20752;-68
2022/01/03 06:57:55;;;;;;;13.52;1.73;;;8.50;99.90;;;;;;4967370;28;20037;-68
2022/01/03 07:00:22;;;;;;;12.10;1.65;;;8.40;99.90;;;;;;4967449;28;20026;-69
2022/01/03 07:02:47;;;;;;;15.88;2.03;;;8.30;99.90;;;;;;4980935;28;20085;-69
2022/01/03 07:05:13;;;;;;;12.73;2.40;;;10.70;99.90;;;;;;4978977;28;20397;-70
2022/01/03 07:07:38;;;;;;;12.02;2.17;;;8.30;99.90;;;;;;4968659;28;20604;-69
2022/01/03 07:10:04;;;;;;;13.93;1.92;;;8.40;99.90;;;;;;4965108;28;20042;-69
2022/01/03 07:12:30;;;;;;;13.30;2.10;;;8.60;99.90;;;;;;4978750;28;20065;-69
2022/01/03 07:20:09;;;;;;;19.10;2.03;;;8.20;99.90;;;;;;4980159;28;20640;-69
2022/01/03 07:22:39;;;;;;;15.40;2.00;;;;;;;;;;4978888;28;20027;-69
2022/01/03 07:25:05;;;;;;;12.02;1.90;;;8.20;99.90;;;;;;4971847;28;20621;-69
2022/01/03 07:27:30;;;;;;;12.20;2.10;;;8.20;99.90;;;;;;4977425;28;20026;-69
2022/01/03 07:29:55;;;;;;;14.65;2.63;;;8.10;99.90;;;;;;4976434;28;20066;-69
2022/01/03 07:32:21;;;;;;;21.40;3.35;;;8.20;99.90;;;;;;4981231;28;20129;-70
2022/01/03 07:34:47;;;;;;;14.63;3.20;;;8.30;99.90;;;;;;4980453;28;20039;-70
2022/01/03 07:37:12;;;;;;;18.08;2.63;;;8.10;99.90;;;;;;4978625;28;20144;-70
2022/01/03 07:39:38;;;;;;;13.55;2.90;;;8.10;99.90;;;;;;4981732;28;20038;-70
2022/01/03 07:42:03;;;;;;;22.70;4.78;;;7.60;99.90;;;;;;4973092;28;20027;-69
2022/01/03 07:44:35;;;;;;;20.40;3.83;;;7.30;99.90;;;;;;4971110;28;20030;-69
2022/01/03 07:47:00;;;;;;;21.85;3.40;;;8.30;99.90;;;;;;4966217;28;20034;-69
2022/01/03 07:49:26;;;;;;;21.52;3.20;;;9.80;99.90;;;;;;4980070;28;20781;-69
2022/01/03 07:51:51;;;;;;;17.45;2.63;;;8.20;99.90;;;;;;4976444;28;20109;-69
2022/01/03 07:54:17;;;;;;;16.85;2.60;;;8.20;99.90;;;;;;4979570;28;20108;-69
2022/01/03 07:56:43;;;;;;;17.55;3.13;;;;;;;;;;4971595;28;20054;-69
2022/01/03 07:59:17;;;;;;;15.25;3.05;;;8.30;99.90;;;;;;4989543;28;20414;-69
2022/01/03 08:01:42;;;;;;;29.95;3.13;;;8.20;99.90;;;;;;4978297;28;20036;-69
2022/01/03 08:04:08;;;;;;;15.40;2.13;;;8.20;99.90;;;;;;4974333;28;20039;-69
2022/01/03 08:06:33;;;;;;;13.40;1.90;;;8.20;99.90;;;;;;4977651;28;20035;-69
2022/01/03 08:08:59;;;;;;;13.82;2.90;;;;;;;;;;4979073;28;20117;-68
2022/01/03 08:11:26;;;;;;;16.90;3.13;;;8.40;99.90;;;;;;4974417;28;20059;-68
2022/01/03 08:13:53;;;;;;;10.07;1.92;;;;;;;;;;4973927;28;20084;-69
2022/01/03 08:16:18;;;;;;;16.17;2.00;;;8.50;99.90;;;;;;4975120;28;20085;-68
2022/01/03 08:18:44;;;;;;;11.30;1.52;;;8.60;99.90;;;;;;4982879;28;20030;-69
2022/01/03 08:21:10;;;;;;;18.55;2.33;;;8.60;99.90;;;;;;4972784;28;20042;-70
2022/01/03 08:23:36;;;;;;;19.83;3.50;;;11.80;99.90;;;;;;4976274;28;20022;-71
2022/01/03 08:26:01;;;;;;;16.75;2.88;;;9.10;99.90;;;;;;4970280;28;20030;-69
2022/01/03 08:28:27;;;;;;;16.10;2.00;;;8.80;99.90;;;;;;4976125;28;20481;-70
2022/01/03 08:30:52;;;;;;;19.83;3.20;;;9.40;99.90;;;;;;4971010;28;20730;-72
2022/01/03 08:33:18;;;;;;;13.32;2.45;;;8.70;99.90;;;;;;4976596;28;20026;-72
2022/01/03 08:35:44;;;;;;;15.93;2.00;;;;;;;;;;4980440;28;20156;-69
2022/01/03 08:38:09;;;;;;;17.00;2.38;;;8.50;99.90;;;;;;4976690;28;20108;-70
2022/01/03 08:40:35;;;;;;;15.00;3.10;;;;;;;;;;4967653;28;20097;-69
2022/01/03 08:43:01;;;;;;;13.05;1.80;;;8.40;99.90;;;;;;4977830;28;20026;-70
2022/01/03 08:45:27;;;;;;;10.40;1.80;;;;;;;;;;4976494;28;20042;-70
2022/01/03 08:47:52;;;;;;;18.13;2.30;;;7.80;99.90;;;;;;4974470;28;20031;-70
2022/01/03 08:50:18;;;;;;;19.30;2.08;;;;;;;;;;4970368;28;20560;-70
2022/01/03 08:52:44;;;;;;;18.63;2.70;;;;;;;;;;4972088;28;20034;-70
2022/01/03 08:55:10;;;;;;;15.82;3.08;;;;;;;;;;4972730;28;20039;-70
2022/01/03 08:57:37;;;;;;;19.50;2.70;;;8.90;99.90;;;;;;4980951;28;20409;-70
2022/01/03 09:00:03;;;;;;;12.80;1.77;;;8.90;99.90;;;;;;4988756;28;20031;-71
2022/01/03 09:02:28;;;;;;;19.90;2.30;;;9.30;99.90;;;;;;4994018;28;20542;-70
2022/01/03 09:04:54;;;;;;;14.90;2.00;;;8.90;99.90;;;;;;4991710;28;20311;-71
2022/01/03 09:07:20;;;;;;;15.60;2.15;;;;;;;;;;4993425;28;20759;-65
2022/01/03 09:09:45;;;;;;;15.15;2.13;;;8.70;99.90;;;;;;4987035;28;20033;-65
2022/01/03 09:12:11;;;;;;;12.35;2.13;;;;;;;;;;4967835;28;20049;-65
2022/01/03 09:14:37;;;;;;;16.92;2.70;;;8.50;99.90;;;;;;4986174;28;20029;-67
2022/01/03 09:17:03;;;;;;;20.77;2.90;;;;;;;;;;4983668;28;20038;-65
2022/01/03 09:19:28;;;;;;;28.13;3.65;;;8.40;99.90;;;;;;4959649;28;20800;-66
2022/01/03 09:22:08;;;;;;;23.38;4.13;;;8.30;99.90;;;;;;4980941;28;20034;-65
2022/01/03 09:24:45;;;;;;;26.88;3.45;;;8.20;99.90;;;;;;4989363;28;20042;-64
2022/01/03 09:29:55;;;;;;;24.70;3.80;;;;;;;;;;4984932;28;20088;-64
2022/01/03 09:32:21;;;;;;;17.88;4.43;;;8.20;99.90;;;;;;4965579;28;20057;-65
2022/01/03 09:34:46;;;;;;;24.15;3.65;;;8.50;99.90;;;;;;4966221;28;20530;-65
2022/01/03 09:37:12;;;;;;;25.00;3.80;;;7.40;99.90;;;;;;4977204;28;20034;-64
2022/01/03 09:39:38;;;;;;;31.35;4.03;;;;;;;;;;4981840;28;20655;-64
2022/01/03 09:42:04;;;;;;;20.10;3.95;;;8.20;99.90;;;;;;4979980;28;20125;-64
2022/01/03 09:44:30;;;;;;;23.30;3.97;;;;;;;;;;4966365;28;20034;-64
2022/01/03 09:46:55;;;;;;;19.30;3.70;;;8.50;99.90;;;;;;4979590;28;20113;-64
2022/01/03 09:49:21;;;;;;;32.10;4.32;;;8.50;99.90;;;;;;4978476;28;20026;-65
2022/01/03 09:51:46;;;;;;;15.05;3.85;;;8.50;99.90;;;;;;4961408;28;20026;-64
2022/01/03 09:54:14;;;;;;;24.13;5.55;;;8.50;99.90;;;;;;4982319;28;20030;-65
2022/01/03 09:56:40;;;;;;;25.45;4.88;;;8.60;99.90;;;;;;4980395;28;20033;-67
2022/01/03 09:59:05;;;;;;;22.20;5.43;;;8.70;99.90;;;;;;4974910;28;20422;-64
2022/01/03 10:01:31;;;;;;;19.83;4.68;;;;;;;;;;4978181;28;20076;-64
2022/01/03 10:03:57;;;;;;;25.45;4.63;;;8.80;99.90;;;;;;4958326;28;20037;-64
2022/01/03 10:06:24;;;;;;;16.92;4.10;;;8.80;99.90;;;;;;4963452;28;20034;-64
2022/01/03 10:08:49;;;;;;;21.15;4.22;;;8.90;99.90;;;;;;4977089;28;20038;-65
2022/01/03 10:11:15;;;;;;;20.58;4.55;;;9.10;99.90;;;;;;4976281;28;20088;-65
2022/01/03 10:13:40;;;;;;;17.92;6.40;;;9.20;99.90;;;;;;4973793;28;20080;-65
2022/01/03 10:16:06;;;;;;;22.75;7.03;;;10.00;99.90;;;;;;4978234;28;20038;-66
2022/01/03 10:18:33;;;;;;;31.02;16.02;;;9.20;99.90;;;;;;4972626;28;20114;-65
2022/01/03 10:20:58;;;;;;;23.15;6.45;;;9.30;99.90;;;;;;4976532;28;20445;-65
2022/01/03 10:23:24;;;;;;;19.45;5.82;;;9.40;99.90;;;;;;4978972;28;20042;-65
2022/01/03 10:25:50;;;;;;;23.08;4.53;;;9.70;99.90;;;;;;4961875;28;20031;-64
2022/01/03 10:28:16;;;;;;;25.98;8.20;;;;;;;;;;4976870;28;20107;-65
2022/01/03 10:30:43;;;;;;;24.80;8.80;;;9.70;99.90;;;;;;4982885;28;20038;-65
2022/01/03 10:33:08;;;;;;;24.40;5.75;;;9.80;99.90;;;;;;4983227;28;20042;-65
2022/01/03 10:35:34;;;;;;;45.95;17.05;;;9.90;99.90;;;;;;4985490;28;20034;-65
2022/01/03 10:37:59;;;;;;;31.35;10.30;;;10.00;99.90;;;;;;4966611;28;20034;-65
2022/01/03 10:40:27;;;;;;;29.38;11.30;;;9.90;99.90;;;;;;4983889;28;20490;-65
2022/01/03 10:42:53;;;;;;;18.95;4.78;;;9.90;99.90;;;;;;4977884;28;20549;-65
2022/01/03 10:45:18;;;;;;;21.08;3.85;;;9.90;99.90;;;;;;4976408;28;20030;-65
2022/01/03 10:47:44;;;;;;;31.17;10.52;;;9.80;99.90;;;;;;4963896;28;20081;-65
2022/01/03 10:50:09;;;;;;;20.63;3.70;;;9.80;99.90;;;;;;4965070;28;20406;-64
2022/01/03 10:52:39;;;;;;;21.75;4.32;;;;;;;;;;4978558;28;20042;-66
2022/01/03 10:55:04;;;;;;;12.80;4.10;;;9.90;99.90;;;;;;4973160;28;20442;-66
2022/01/03 10:57:30;;;;;;;17.58;4.30;;;9.90;99.90;;;;;;4976417;28;20030;-65
2022/01/03 10:59:55;;;;;;;20.80;3.97;;;10.00;99.90;;;;;;4975694;28;20034;-66
2022/01/03 11:02:21;;;;;;;14.10;4.20;;;9.80;99.90;;;;;;4982752;28;20486;-65
2022/01/03 11:04:54;;;;;;;14.65;3.75;;;;;;;;;;4978238;28;20026;-66
2022/01/03 11:12:44;;;;;;;24.67;4.38;;;9.90;99.90;;;;;;4978279;28;20030;-65
2022/01/03 11:15:10;;;;;;;22.95;4.32;;;9.80;99.90;;;;;;4975967;28;20062;-65
2022/01/03 11:17:36;;;;;;;19.10;3.50;;;9.90;99.90;;;;;;4978963;28;20038;-65
2022/01/03 11:20:02;;;;;;;21.25;4.38;;;;;;;;;;4975474;28;20109;-65
2022/01/03 11:22:28;;;;;;;16.92;5.03;;;9.90;99.90;;;;;;4978267;28;20519;-65
2022/01/03 11:24:53;;;;;;;14.20;3.30;;;10.00;99.90;;;;;;4973160;28;20050;-65
2022/01/03 11:27:19;;;;;;;21.73;3.83;;;10.20;99.90;;;;;;4976549;28;20038;-65
2022/01/03 11:29:45;;;;;;;18.55;4.32;;;10.50;99.90;;;;;;4978737;28;20052;-65
2022/01/03 11:32:10;;;;;;;17.67;3.83;;;10.20;99.90;;;;;;4964613;28;20100;-65
2022/01/03 11:34:35;;;;;;;20.05;3.80;;;10.20;99.90;;;;;;4980778;28;20590;-65
2022/01/03 11:37:01;;;;;;;21.75;3.75;;;10.30;99.90;;;;;;4974922;28;20037;-65
2022/01/03 11:39:26;;;;;;;16.98;3.15;;;10.30;99.90;;;;;;4971808;28;20034;-65
2022/01/03 11:41:53;;;;;;;15.13;3.50;;;10.30;99.90;;;;;;4974630;28;20027;-65
2022/01/03 11:44:18;;;;;;;20.17;4.03;;;10.30;99.90;;;;;;4978521;28;20065;-65
2022/01/03 11:46:44;;;;;;;16.58;3.20;;;10.30;99.90;;;;;;4977743;28;20084;-65
2022/01/03 11:49:09;;;;;;;17.38;3.40;;;10.20;99.90;;;;;;4974814;28;20089;-66
2022/01/03 11:51:35;;;;;;;21.15;3.72;;;11.00;99.90;;;;;;4975874;28;20030;-65
2022/01/03 11:54:00;;;;;;;15.43;3.22;;;10.30;99.90;;;;;;4973289;28;20158;-66
2022/01/03 11:56:26;;;;;;;15.02;3.03;;;10.30;99.90;;;;;;4976607;28;20069;-66
2022/01/03 11:59:18;;;;;;;19.35;3.92;;;10.20;99.90;;;;;;4979714;28;20026;-67
2022/01/03 12:04:21;;;;;;;23.20;3.90;;;10.30;99.90;;;;;;4979603;28;20086;-65
2022/01/03 12:06:47;;;;;;;16.58;2.80;;;10.30;99.90;;;;;;4951129;28;20047;-67
2022/01/03 12:09:12;;;;;;;20.85;5.18;;;10.50;99.90;;;;;;4960020;28;20395;-66
2022/01/03 12:11:38;;;;;;;17.50;3.45;;;10.40;99.90;;;;;;4974452;28;20158;-66
2022/01/03 12:14:03;;;;;;;15.10;3.22;;;11.40;99.90;;;;;;4979439;28;20719;-66
2022/01/03 12:16:29;;;;;;;21.30;5.15;;;10.50;99.90;;;;;;4974779;28;20125;-66
2022/01/03 12:18:54;;;;;;;16.42;4.63;;;10.50;99.90;;;;;;4977013;28;20031;-66
2022/01/03 12:21:20;;;;;;;22.52;4.88;;;10.50;99.90;;;;;;4967018;28;20852;-66
2022/01/03 12:23:46;;;;;;;13.13;3.15;;;10.60;99.90;;;;;;4970748;28;20117;-64
2022/01/03 12:26:12;;;;;;;11.25;2.67;;;10.70;99.90;;;;;;4959931;28;20034;-66
2022/01/03 12:28:37;;;;;;;21.08;3.33;;;10.80;99.90;;;;;;4987431;28;20025;-65
2022/01/03 12:31:03;;;;;;;17.67;2.97;;;10.80;99.90;;;;;;4975234;28;20040;-65
2022/01/03 12:33:28;;;;;;;12.82;3.35;;;10.80;99.90;;;;;;4980405;28;20038;-65
2022/01/03 12:35:54;;;;;;;12.48;2.80;;;10.80;99.90;;;;;;4967687;28;20045;-66
2022/01/03 12:38:21;;;;;;;17.23;2.55;;;11.50;99.90;;;;;;4977755;28;20038;-66
2022/01/03 12:40:47;;;;;;;13.70;2.95;;;10.90;99.90;;;;;;4981905;28;20049;-66
2022/01/03 12:43:12;;;;;;;14.00;3.75;;;10.90;99.90;;;;;;4957194;28;20120;-66
2022/01/03 12:45:39;;;;;;;17.02;3.15;;;10.90;99.90;;;;;;4983234;28;20187;-66
2022/01/03 12:48:04;;;;;;;14.20;2.95;;;11.00;99.90;;;;;;4974758;28;20076;-66
2022/01/03 12:50:30;;;;;;;20.60;3.00;;;11.00;99.90;;;;;;4976396;28;20042;-66
2022/01/03 12:52:57;;;;;;;21.77;3.63;;;10.80;99.90;;;;;;4963279;28;20030;-67
2022/01/03 12:55:22;;;;;;;17.88;2.97;;;10.70;99.90;;;;;;4984237;28;20242;-66
2022/01/03 12:57:48;;;;;;;19.73;3.28;;;10.70;99.90;;;;;;4977616;28;20480;-67
2022/01/03 13:00:13;;;;;;;17.88;4.72;;;10.60;99.90;;;;;;4976986;28;20644;-66
2022/01/03 13:02:39;;;;;;;20.85;6.90;;;10.60;99.90;;;;;;4980967;28;20026;-66
2022/01/03 13:05:04;;;;;;;25.05;8.77;;;10.70;99.90;;;;;;4977708;28;20042;-65
2022/01/03 13:07:30;;;;;;;20.40;4.75;;;10.80;99.90;;;;;;4979443;28;20169;-66
2022/01/03 13:09:55;;;;;;;20.52;3.83;;;10.80;99.90;;;;;;4978767;28;20022;-66
2022/01/03 13:12:21;;;;;;;20.63;4.47;;;11.30;99.90;;;;;;4981330;28;20034;-69
2022/01/03 13:14:47;;;;;;;16.42;5.55;;;11.40;99.90;;;;;;4980986;28;20126;-69
2022/01/03 13:17:12;;;;;;;28.65;12.05;;;11.70;99.90;;;;;;4980679;28;20133;-69
2022/01/03 13:19:40;;;;;;;9.48;2.75;;;12.20;99.90;;;;;;4980645;28;20038;-68
2022/01/03 13:22:06;;;;;;;23.38;7.15;;;12.00;99.90;;;;;;4978801;28;20026;-70
2022/01/03 13:24:32;;;;;;;12.95;3.35;;;11.90;99.90;;;;;;4988568;28;20498;-69
2022/01/03 13:26:58;;;;;;;19.85;5.78;;;11.60;99.90;;;;;;4981265;28;20600;-69
2022/01/03 13:29:23;;;;;;;14.40;2.75;;;11.40;99.90;;;;;;4982053;28;20046;-69
2022/01/03 13:31:49;;;;;;;17.45;3.13;;;11.60;99.90;;;;;;4975395;28;20030;-68
2022/01/03 13:34:14;;;;;;;15.77;3.00;;;11.30;99.90;;;;;;4980152;28;20089;-70